CPA3283 KATL-PANC
Flight info
| Callsign | CPA3283 |
|---|---|
| Flight time | N/A |
| Altitude | 34000 |
| Route | VARNM2 RESPE IIU J89 OBK DLH YBR/N0500F360 WAINN YQU IRBAS DEEJA NCA10 YAK J501 JOH YESKA6 |
| Aircraft | B748/H-SDE3FGHIM1M2RWXY/LB1 |
Departure
| Time | 2026-05-05 18:43 |
|---|---|
| Airport | Hartsfield Jackson Atlanta International Airport (KATL) |
Arrival
| Time | N/A |
|---|---|
| Airport | Ted Stevens Anchorage International Airport (PANC) |
| Time | Latitude | Longitude | Altitude | Speed | Heading |
|---|---|---|---|---|---|
| 2026-05-05 18:19 | 33.62745 | -84.42955 | 1042 ft | 0 kts | 270° |
| 2026-05-05 18:29 | 33.62745 | -84.42949 | 1042 ft | 3 kts | 270° |
| 2026-05-05 18:29 | 33.62745 | -84.42917 | 1042 ft | 4 kts | 271° |
| 2026-05-05 18:30 | 33.62744 | -84.42885 | 1043 ft | 4 kts | 282° |
| 2026-05-05 18:30 | 33.62739 | -84.42860 | 1043 ft | 4 kts | 312° |
| 2026-05-05 18:30 | 33.62729 | -84.42848 | 1043 ft | 4 kts | 347° |
| 2026-05-05 18:30 | 33.62703 | -84.42842 | 1043 ft | 4 kts | 359° |
| 2026-05-05 18:31 | 33.62676 | -84.42843 | 1043 ft | 4 kts | 8° |
| 2026-05-05 18:31 | 33.62650 | -84.42848 | 1043 ft | 3 kts | 1° |
| 2026-05-05 18:31 | 33.62645 | -84.42848 | 1043 ft | 5 kts | 0° |
| 2026-05-05 18:33 | 33.62655 | -84.42848 | 1043 ft | 3 kts | 360° |
| 2026-05-05 18:33 | 33.62686 | -84.42848 | 1042 ft | 6 kts | 360° |
| 2026-05-05 18:33 | 33.62746 | -84.42849 | 1044 ft | 11 kts | 360° |
| 2026-05-05 18:34 | 33.62830 | -84.42849 | 1042 ft | 13 kts | 359° |
| 2026-05-05 18:34 | 33.62924 | -84.42856 | 1042 ft | 12 kts | 341° |
| 2026-05-05 18:34 | 33.62979 | -84.42914 | 1042 ft | 8 kts | 323° |
| 2026-05-05 18:34 | 33.63018 | -84.42926 | 1042 ft | 7 kts | 348° |
| 2026-05-05 18:35 | 33.63052 | -84.42920 | 1042 ft | 7 kts | 27° |
| 2026-05-05 18:35 | 33.63073 | -84.42862 | 1042 ft | 9 kts | 86° |
| 2026-05-05 18:35 | 33.63074 | -84.42764 | 1042 ft | 13 kts | 89° |
| 2026-05-05 18:35 | 33.63075 | -84.42646 | 1041 ft | 15 kts | 89° |
| 2026-05-05 18:36 | 33.63131 | -84.42577 | 1041 ft | 12 kts | 15° |
| 2026-05-05 18:36 | 33.63212 | -84.42567 | 1041 ft | 10 kts | 21° |
| 2026-05-05 18:36 | 33.63260 | -84.42503 | 1041 ft | 12 kts | 57° |
| 2026-05-05 18:36 | 33.63306 | -84.42407 | 1041 ft | 15 kts | 60° |
| 2026-05-05 18:37 | 33.63361 | -84.42289 | 1042 ft | 17 kts | 58° |
| 2026-05-05 18:37 | 33.63461 | -84.42242 | 1042 ft | 16 kts | 359° |
| 2026-05-05 18:37 | 33.63571 | -84.42241 | 1043 ft | 16 kts | 2° |
| 2026-05-05 18:37 | 33.63682 | -84.42238 | 1042 ft | 16 kts | 0° |
| 2026-05-05 18:38 | 33.63795 | -84.42238 | 1042 ft | 16 kts | 0° |
| 2026-05-05 18:38 | 33.63909 | -84.42242 | 1042 ft | 16 kts | 354° |
| 2026-05-05 18:38 | 33.64015 | -84.42244 | 1042 ft | 15 kts | 360° |
| 2026-05-05 18:38 | 33.64117 | -84.42244 | 1042 ft | 15 kts | 359° |
| 2026-05-05 18:39 | 33.64227 | -84.42243 | 1042 ft | 18 kts | 0° |
| 2026-05-05 18:39 | 33.64364 | -84.42240 | 1042 ft | 22 kts | 359° |
| 2026-05-05 18:39 | 33.64500 | -84.42197 | 1042 ft | 19 kts | 45° |
| 2026-05-05 18:39 | 33.64543 | -84.42055 | 1042 ft | 19 kts | 90° |
| 2026-05-05 18:40 | 33.64542 | -84.41898 | 1042 ft | 19 kts | 91° |
| 2026-05-05 18:40 | 33.64540 | -84.41737 | 1042 ft | 19 kts | 90° |
| 2026-05-05 18:40 | 33.64543 | -84.41579 | 1042 ft | 19 kts | 90° |
| 2026-05-05 18:40 | 33.64543 | -84.41416 | 1042 ft | 21 kts | 90° |
| 2026-05-05 18:41 | 33.64543 | -84.41223 | 1042 ft | 24 kts | 88° |
| 2026-05-05 18:41 | 33.64543 | -84.41014 | 1042 ft | 26 kts | 90° |
| 2026-05-05 18:41 | 33.64558 | -84.40804 | 1041 ft | 24 kts | 72° |
| 2026-05-05 18:41 | 33.64575 | -84.40623 | 1041 ft | 15 kts | 74° |
| 2026-05-05 18:42 | 33.64652 | -84.40575 | 1039 ft | 7 kts | 351° |
| 2026-05-05 18:42 | 33.64674 | -84.40614 | 1039 ft | 6 kts | 292° |
| 2026-05-05 18:42 | 33.64678 | -84.40675 | 1039 ft | 10 kts | 269° |
| 2026-05-05 18:42 | 33.64678 | -84.41008 | 1042 ft | 77 kts | 270° |
| 2026-05-05 18:43 | 33.64676 | -84.41943 | 1042 ft | 142 kts | 271° |
| 2026-05-05 18:43 | 33.64674 | -84.43299 | 1203 ft | 179 kts | 265° |
| 2026-05-05 18:43 | 33.64659 | -84.44813 | 2144 ft | 179 kts | 263° |
| 2026-05-05 18:43 | 33.64727 | -84.46361 | 2760 ft | 201 kts | 277° |
| 2026-05-05 18:44 | 33.65270 | -84.48052 | 3228 ft | 224 kts | 295° |
| 2026-05-05 18:44 | 33.66008 | -84.49751 | 3866 ft | 241 kts | 294° |
| 2026-05-05 18:44 | 33.66824 | -84.51657 | 4323 ft | 270 kts | 293° |
| 2026-05-05 18:44 | 33.67654 | -84.53690 | 5467 ft | 267 kts | 292° |
| 2026-05-05 18:45 | 33.68498 | -84.55684 | 6632 ft | 270 kts | 298° |
| 2026-05-05 18:45 | 33.69846 | -84.57325 | 7667 ft | 283 kts | 326° |
| 2026-05-05 18:45 | 33.71673 | -84.58120 | 8837 ft | 288 kts | 348° |
| 2026-05-05 18:45 | 33.73700 | -84.58261 | 9884 ft | 295 kts | 356° |
| 2026-05-05 18:46 | 33.75850 | -84.58202 | 10300 ft | 323 kts | 359° |
| 2026-05-05 18:46 | 33.78116 | -84.58093 | 11276 ft | 321 kts | 356° |
| 2026-05-05 18:46 | 33.80302 | -84.58089 | 12485 ft | 319 kts | 356° |
| 2026-05-05 18:46 | 33.82607 | -84.58122 | 12905 ft | 340 kts | 355° |
| 2026-05-05 18:47 | 33.84969 | -84.58086 | 13973 ft | 342 kts | 357° |
| 2026-05-05 18:47 | 33.87457 | -84.58130 | 14023 ft | 371 kts | 353° |
| 2026-05-05 18:47 | 33.90108 | -84.58292 | 14076 ft | 401 kts | 354° |
| 2026-05-05 18:47 | 33.92990 | -84.58398 | 14365 ft | 422 kts | 356° |
| 2026-05-05 18:48 | 33.95922 | -84.58436 | 15429 ft | 422 kts | 355° |
| 2026-05-05 18:48 | 33.98872 | -84.58512 | 16235 ft | 426 kts | 354° |
| 2026-05-05 18:48 | 34.01845 | -84.58625 | 17110 ft | 429 kts | 354° |
| 2026-05-05 18:48 | 34.04840 | -84.58727 | 17957 ft | 433 kts | 354° |
| 2026-05-05 18:49 | 34.07870 | -84.58807 | 18733 ft | 436 kts | 354° |
| 2026-05-05 18:49 | 34.10922 | -84.58891 | 19421 ft | 440 kts | 353° |
| 2026-05-05 18:49 | 34.13998 | -84.58989 | 20112 ft | 444 kts | 353° |
| 2026-05-05 18:49 | 34.17103 | -84.59087 | 20817 ft | 446 kts | 353° |
| 2026-05-05 18:50 | 34.20194 | -84.59179 | 21418 ft | 451 kts | 353° |
| 2026-05-05 18:50 | 34.23345 | -84.59271 | 22066 ft | 455 kts | 353° |
| 2026-05-05 18:50 | 34.26522 | -84.59368 | 22697 ft | 458 kts | 353° |
| 2026-05-05 18:50 | 34.29682 | -84.59751 | 23313 ft | 455 kts | 344° |
| 2026-05-05 18:51 | 34.32801 | -84.60504 | 23867 ft | 458 kts | 344° |
| 2026-05-05 18:51 | 34.35933 | -84.61276 | 24363 ft | 461 kts | 344° |
| 2026-05-05 18:51 | 34.39085 | -84.62059 | 24908 ft | 463 kts | 344° |
| 2026-05-05 18:51 | 34.42263 | -84.62839 | 25433 ft | 466 kts | 344° |
| 2026-05-05 18:52 | 34.45409 | -84.63608 | 25926 ft | 468 kts | 343° |
| 2026-05-05 18:52 | 34.48615 | -84.64397 | 26373 ft | 471 kts | 343° |
| 2026-05-05 18:52 | 34.51821 | -84.65188 | 27093 ft | 467 kts | 343° |
| 2026-05-05 18:52 | 34.54996 | -84.65969 | 27829 ft | 464 kts | 343° |
| 2026-05-05 18:53 | 34.58154 | -84.66750 | 28543 ft | 461 kts | 343° |
| 2026-05-05 18:53 | 34.61294 | -84.67525 | 29204 ft | 460 kts | 343° |
| 2026-05-05 18:53 | 34.64426 | -84.68299 | 29894 ft | 458 kts | 342° |
| 2026-05-05 18:53 | 34.67545 | -84.69071 | 30545 ft | 455 kts | 342° |
| 2026-05-05 18:54 | 34.70633 | -84.69833 | 31301 ft | 449 kts | 342° |
| 2026-05-05 18:54 | 34.73670 | -84.70583 | 32096 ft | 441 kts | 342° |
| 2026-05-05 18:54 | 34.76657 | -84.71326 | 32837 ft | 435 kts | 342° |
| 2026-05-05 18:54 | 34.79599 | -84.72057 | 33641 ft | 428 kts | 341° |
| 2026-05-05 18:55 | 34.82477 | -84.72772 | 34039 ft | 428 kts | 341° |
| 2026-05-05 18:55 | 34.85413 | -84.73506 | 34026 ft | 429 kts | 341° |
| 2026-05-05 18:55 | 34.91215 | -84.74943 | 34011 ft | 424 kts | 341° |
| 2026-05-05 18:56 | 34.96996 | -84.76388 | 33992 ft | 424 kts | 341° |
| 2026-05-05 18:56 | 35.02791 | -84.77831 | 33999 ft | 426 kts | 341° |
| 2026-05-05 18:57 | 35.08608 | -84.79286 | 33994 ft | 427 kts | 341° |
| 2026-05-05 18:57 | 35.14414 | -84.80737 | 33996 ft | 428 kts | 341° |
| 2026-05-05 18:58 | 35.20254 | -84.82201 | 33993 ft | 429 kts | 341° |
| 2026-05-05 18:58 | 35.26122 | -84.83673 | 34000 ft | 430 kts | 341° |
| 2026-05-05 18:59 | 35.31967 | -84.85141 | 33999 ft | 431 kts | 341° |
| 2026-05-05 18:59 | 35.37852 | -84.86623 | 34011 ft | 432 kts | 341° |
| 2026-05-05 19:00 | 35.43749 | -84.88108 | 34008 ft | 432 kts | 341° |
| 2026-05-05 19:00 | 35.49645 | -84.89597 | 34022 ft | 433 kts | 341° |
| 2026-05-05 19:01 | 35.55552 | -84.91090 | 34013 ft | 434 kts | 341° |
| 2026-05-05 19:01 | 35.61432 | -84.92578 | 34012 ft | 434 kts | 341° |
| 2026-05-05 19:02 | 35.67357 | -84.94080 | 34016 ft | 434 kts | 341° |
| 2026-05-05 19:02 | 35.73272 | -84.95582 | 34021 ft | 433 kts | 341° |
| 2026-05-05 19:03 | 35.79183 | -84.97085 | 34008 ft | 432 kts | 341° |
| 2026-05-05 19:03 | 35.85040 | -84.98576 | 34019 ft | 433 kts | 340° |
| 2026-05-05 19:04 | 35.90933 | -85.00080 | 34019 ft | 432 kts | 340° |
| 2026-05-05 19:04 | 35.96828 | -85.01585 | 34027 ft | 432 kts | 340° |
| 2026-05-05 19:05 | 36.02719 | -85.03092 | 34031 ft | 431 kts | 340° |
| 2026-05-05 19:05 | 36.08596 | -85.04598 | 34028 ft | 431 kts | 340° |
| 2026-05-05 19:06 | 36.14470 | -85.06105 | 34016 ft | 430 kts | 340° |
| 2026-05-05 19:06 | 36.20287 | -85.07600 | 34000 ft | 430 kts | 340° |
| 2026-05-05 19:07 | 36.25193 | -85.08863 | 33995 ft | 430 kts | 340° |
| 2026-05-05 19:07 | 36.32003 | -85.10617 | 33989 ft | 429 kts | 340° |
| 2026-05-05 19:08 | 36.37861 | -85.12130 | 33985 ft | 429 kts | 340° |
| 2026-05-05 19:08 | 36.43712 | -85.13642 | 33984 ft | 429 kts | 340° |
| 2026-05-05 19:09 | 36.49552 | -85.15156 | 33975 ft | 428 kts | 340° |
| 2026-05-05 19:09 | 36.55388 | -85.16669 | 33975 ft | 428 kts | 340° |
| 2026-05-05 19:10 | 36.61186 | -85.18175 | 33973 ft | 428 kts | 339° |
| 2026-05-05 19:10 | 36.67027 | -85.19696 | 33969 ft | 429 kts | 339° |
| 2026-05-05 19:11 | 36.72883 | -85.21221 | 33972 ft | 430 kts | 339° |
| 2026-05-05 19:11 | 36.78741 | -85.22750 | 33968 ft | 430 kts | 339° |
| 2026-05-05 19:12 | 36.84623 | -85.24288 | 33967 ft | 432 kts | 339° |
| 2026-05-05 19:12 | 36.90465 | -85.25816 | 33963 ft | 432 kts | 339° |
| 2026-05-05 19:13 | 36.96361 | -85.27363 | 33952 ft | 432 kts | 339° |
| 2026-05-05 19:13 | 37.02267 | -85.28913 | 33950 ft | 433 kts | 339° |
| 2026-05-05 19:14 | 37.08163 | -85.30464 | 33958 ft | 432 kts | 339° |
| 2026-05-05 19:14 | 37.13056 | -85.31753 | 33959 ft | 431 kts | 339° |
| 2026-05-05 19:15 | 37.18935 | -85.33305 | 33976 ft | 432 kts | 339° |
| 2026-05-05 19:15 | 37.25777 | -85.35111 | 33978 ft | 431 kts | 339° |
| 2026-05-05 19:16 | 37.30660 | -85.36405 | 33988 ft | 431 kts | 339° |
| 2026-05-05 19:16 | 37.36530 | -85.37962 | 33988 ft | 431 kts | 339° |
| 2026-05-05 19:17 | 37.42395 | -85.39517 | 33988 ft | 430 kts | 339° |
| 2026-05-05 19:17 | 37.47911 | -85.41916 | 33994 ft | 410 kts | 319° |
| 2026-05-05 19:18 | 37.51897 | -85.46809 | 33960 ft | 397 kts | 302° |
| 2026-05-05 19:18 | 37.54772 | -85.52717 | 33939 ft | 395 kts | 296° |
| 2026-05-05 19:19 | 37.57295 | -85.58805 | 33903 ft | 394 kts | 295° |
| 2026-05-05 19:19 | 37.59770 | -85.64975 | 33898 ft | 394 kts | 295° |
| 2026-05-05 19:20 | 37.62239 | -85.71153 | 33901 ft | 394 kts | 295° |
| 2026-05-05 19:20 | 37.64717 | -85.77335 | 33905 ft | 393 kts | 295° |
| 2026-05-05 19:21 | 37.67176 | -85.83445 | 33904 ft | 392 kts | 295° |
| 2026-05-05 19:21 | 37.69659 | -85.89591 | 33907 ft | 392 kts | 295° |
| 2026-05-05 19:22 | 37.72144 | -85.95718 | 33904 ft | 391 kts | 295° |
| 2026-05-05 19:22 | 37.74634 | -86.01840 | 33895 ft | 391 kts | 295° |
| 2026-05-05 19:23 | 37.77112 | -86.07916 | 33891 ft | 391 kts | 295° |
| 2026-05-05 19:23 | 37.79617 | -86.14038 | 33872 ft | 391 kts | 295° |
| 2026-05-05 19:24 | 37.82125 | -86.20152 | 33873 ft | 391 kts | 295° |
| 2026-05-05 19:24 | 37.84634 | -86.26247 | 33876 ft | 391 kts | 295° |
| 2026-05-05 19:25 | 37.87599 | -86.32049 | 33877 ft | 395 kts | 306° |
| 2026-05-05 19:25 | 37.91602 | -86.36843 | 33868 ft | 404 kts | 317° |
| 2026-05-05 19:26 | 37.96569 | -86.40387 | 33880 ft | 418 kts | 329° |
| 2026-05-05 19:26 | 38.02294 | -86.42319 | 33885 ft | 434 kts | 340° |
| 2026-05-05 19:27 | 38.08269 | -86.43512 | 33871 ft | 434 kts | 341° |
| 2026-05-05 19:27 | 38.14233 | -86.44683 | 33874 ft | 433 kts | 341° |
| 2026-05-05 19:28 | 38.20185 | -86.45864 | 33875 ft | 433 kts | 340° |
| 2026-05-05 19:28 | 38.26100 | -86.47034 | 33876 ft | 433 kts | 340° |
| 2026-05-05 19:29 | 38.32058 | -86.48218 | 33883 ft | 433 kts | 340° |
| 2026-05-05 19:29 | 38.38026 | -86.49404 | 33887 ft | 434 kts | 340° |
| 2026-05-05 19:30 | 38.43993 | -86.50592 | 33889 ft | 434 kts | 340° |
| 2026-05-05 19:30 | 38.49960 | -86.51782 | 33887 ft | 433 kts | 340° |
| 2026-05-05 19:31 | 38.55885 | -86.52967 | 33886 ft | 433 kts | 340° |
| 2026-05-05 19:31 | 38.61856 | -86.54162 | 33886 ft | 434 kts | 340° |
| 2026-05-05 19:32 | 38.67828 | -86.55359 | 33874 ft | 434 kts | 340° |
| 2026-05-05 19:32 | 38.73792 | -86.56557 | 33870 ft | 433 kts | 340° |
| 2026-05-05 19:33 | 38.79752 | -86.57756 | 33880 ft | 433 kts | 340° |
| 2026-05-05 19:33 | 38.85698 | -86.58953 | 33877 ft | 432 kts | 340° |
| 2026-05-05 19:34 | 38.91601 | -86.60146 | 33875 ft | 431 kts | 340° |
| 2026-05-05 19:35 | 39.00498 | -86.61945 | 33867 ft | 432 kts | 340° |
| 2026-05-05 19:35 | 39.06412 | -86.63144 | 33864 ft | 431 kts | 340° |
| 2026-05-05 19:36 | 39.12334 | -86.64346 | 33868 ft | 431 kts | 340° |
| 2026-05-05 19:36 | 39.18263 | -86.65554 | 33868 ft | 431 kts | 340° |
| 2026-05-05 19:37 | 39.24190 | -86.66760 | 33871 ft | 431 kts | 339° |
| 2026-05-05 19:37 | 39.30114 | -86.67969 | 33871 ft | 431 kts | 339° |
| 2026-05-05 19:38 | 39.36039 | -86.69181 | 33871 ft | 431 kts | 339° |
| 2026-05-05 19:38 | 39.41935 | -86.70387 | 33862 ft | 430 kts | 339° |
| 2026-05-05 19:39 | 39.47848 | -86.71600 | 33870 ft | 430 kts | 339° |
| 2026-05-05 19:39 | 39.53758 | -86.72815 | 33880 ft | 429 kts | 339° |
| 2026-05-05 19:40 | 39.59665 | -86.74031 | 33878 ft | 429 kts | 339° |
| 2026-05-05 19:40 | 39.65563 | -86.75248 | 33881 ft | 429 kts | 339° |
| 2026-05-05 19:41 | 39.71427 | -86.76458 | 33875 ft | 429 kts | 339° |
| 2026-05-05 19:41 | 39.77325 | -86.77679 | 33874 ft | 429 kts | 339° |
| 2026-05-05 19:42 | 39.83221 | -86.78901 | 33904 ft | 428 kts | 339° |
| 2026-05-05 19:42 | 39.89074 | -86.80117 | 33905 ft | 428 kts | 339° |
| 2026-05-05 19:43 | 39.94966 | -86.81342 | 33903 ft | 429 kts | 339° |
| 2026-05-05 19:43 | 40.00864 | -86.82571 | 33905 ft | 429 kts | 339° |
| 2026-05-05 19:44 | 40.06753 | -86.83800 | 33906 ft | 428 kts | 339° |
| 2026-05-05 19:44 | 40.12635 | -86.85030 | 33898 ft | 428 kts | 338° |
| 2026-05-05 19:45 | 40.18476 | -86.86253 | 33898 ft | 427 kts | 338° |
| 2026-05-05 19:45 | 40.24279 | -86.87702 | 33905 ft | 416 kts | 331° |
| 2026-05-05 19:46 | 40.29519 | -86.90504 | 33908 ft | 402 kts | 323° |
| 2026-05-05 19:46 | 40.34576 | -86.93663 | 33907 ft | 402 kts | 323° |
| 2026-05-05 19:47 | 40.39578 | -86.96814 | 33907 ft | 400 kts | 323° |
| 2026-05-05 19:47 | 40.44606 | -86.99982 | 33912 ft | 401 kts | 323° |
| 2026-05-05 19:48 | 40.49650 | -87.03163 | 33901 ft | 401 kts | 323° |
| 2026-05-05 19:48 | 40.54655 | -87.06327 | 33902 ft | 402 kts | 323° |
| 2026-05-05 19:49 | 40.59899 | -87.09130 | 33901 ft | 408 kts | 327° |
| 2026-05-05 19:49 | 40.65192 | -87.11876 | 33894 ft | 408 kts | 327° |
| 2026-05-05 19:50 | 40.70495 | -87.14609 | 33901 ft | 409 kts | 327° |
| 2026-05-05 19:50 | 40.75807 | -87.17360 | 33901 ft | 410 kts | 326° |
| 2026-05-05 19:51 | 40.81122 | -87.20114 | 33908 ft | 410 kts | 326° |
| 2026-05-05 19:51 | 40.86408 | -87.22868 | 33919 ft | 411 kts | 326° |
| 2026-05-05 19:52 | 40.91738 | -87.25647 | 33915 ft | 412 kts | 326° |
| 2026-05-05 19:52 | 40.97072 | -87.28433 | 33917 ft | 412 kts | 326° |
| 2026-05-05 19:53 | 41.02421 | -87.31233 | 33911 ft | 414 kts | 326° |
| 2026-05-05 19:53 | 41.07789 | -87.34047 | 33903 ft | 415 kts | 326° |
| 2026-05-05 19:54 | 41.13169 | -87.36872 | 33887 ft | 416 kts | 326° |
| 2026-05-05 19:54 | 41.18512 | -87.39682 | 33885 ft | 415 kts | 326° |
| 2026-05-05 19:55 | 41.23885 | -87.42512 | 33883 ft | 415 kts | 326° |
| 2026-05-05 19:55 | 41.29269 | -87.45353 | 33887 ft | 416 kts | 326° |
| 2026-05-05 19:56 | 41.34646 | -87.48195 | 33893 ft | 416 kts | 326° |
| 2026-05-05 19:56 | 41.40037 | -87.51049 | 33902 ft | 416 kts | 326° |
| 2026-05-05 19:57 | 41.45394 | -87.53892 | 33910 ft | 417 kts | 326° |
| 2026-05-05 19:57 | 41.50808 | -87.56768 | 33909 ft | 418 kts | 326° |
| 2026-05-05 19:58 | 41.56227 | -87.59654 | 33899 ft | 420 kts | 326° |
| 2026-05-05 19:58 | 41.61659 | -87.62549 | 33901 ft | 420 kts | 326° |
| 2026-05-05 19:59 | 41.67050 | -87.65431 | 33895 ft | 421 kts | 326° |
| 2026-05-05 19:59 | 41.72506 | -87.68352 | 33898 ft | 423 kts | 326° |
| 2026-05-05 20:00 | 41.77992 | -87.71293 | 33892 ft | 425 kts | 326° |
| 2026-05-05 20:00 | 41.83492 | -87.74248 | 33895 ft | 426 kts | 326° |
| 2026-05-05 20:01 | 41.88969 | -87.77195 | 33899 ft | 427 kts | 326° |
| 2026-05-05 20:01 | 41.94482 | -87.80168 | 33889 ft | 427 kts | 326° |
| 2026-05-05 20:02 | 42.00004 | -87.83151 | 33886 ft | 428 kts | 326° |
| 2026-05-05 20:02 | 42.05534 | -87.86143 | 33897 ft | 427 kts | 326° |
| 2026-05-05 20:03 | 42.11060 | -87.89142 | 33898 ft | 428 kts | 326° |
| 2026-05-05 20:03 | 42.16553 | -87.92123 | 33895 ft | 428 kts | 326° |
| 2026-05-05 20:04 | 42.22023 | -87.95223 | 33903 ft | 419 kts | 320° |
| 2026-05-05 20:04 | 42.26949 | -87.99242 | 33887 ft | 412 kts | 316° |
| 2026-05-05 20:05 | 42.31808 | -88.03341 | 33879 ft | 411 kts | 316° |
| 2026-05-05 20:05 | 42.36629 | -88.07439 | 33877 ft | 411 kts | 316° |
| 2026-05-05 20:06 | 42.41469 | -88.11550 | 33875 ft | 410 kts | 316° |
| 2026-05-05 20:06 | 42.46303 | -88.15668 | 33875 ft | 410 kts | 316° |
| 2026-05-05 20:07 | 42.50318 | -88.19092 | 33889 ft | 410 kts | 316° |
| 2026-05-05 20:07 | 42.55146 | -88.23218 | 33884 ft | 409 kts | 316° |
| 2026-05-05 20:08 | 42.59958 | -88.27337 | 33898 ft | 409 kts | 316° |
| 2026-05-05 20:08 | 42.64775 | -88.31469 | 33896 ft | 409 kts | 316° |
| 2026-05-05 20:09 | 42.69579 | -88.35596 | 33896 ft | 408 kts | 316° |
| 2026-05-05 20:09 | 42.74348 | -88.39702 | 33892 ft | 407 kts | 316° |
| 2026-05-05 20:10 | 42.79143 | -88.43837 | 33894 ft | 407 kts | 316° |
| 2026-05-05 20:10 | 42.83933 | -88.47976 | 33883 ft | 408 kts | 316° |
| 2026-05-05 20:11 | 42.88740 | -88.52138 | 33879 ft | 409 kts | 316° |
| 2026-05-05 20:11 | 42.93521 | -88.56283 | 33872 ft | 410 kts | 316° |
| 2026-05-05 20:12 | 42.98335 | -88.60466 | 33877 ft | 410 kts | 316° |
| 2026-05-05 20:12 | 43.03154 | -88.64661 | 33859 ft | 411 kts | 316° |
| 2026-05-05 20:13 | 43.07980 | -88.68871 | 33862 ft | 411 kts | 316° |
| 2026-05-05 20:13 | 43.12780 | -88.73065 | 33869 ft | 412 kts | 316° |
| 2026-05-05 20:14 | 43.17626 | -88.77308 | 33870 ft | 413 kts | 316° |
| 2026-05-05 20:14 | 43.22471 | -88.81557 | 33880 ft | 413 kts | 315° |
| 2026-05-05 20:15 | 43.27318 | -88.85817 | 33881 ft | 414 kts | 315° |
| 2026-05-05 20:15 | 43.32134 | -88.90058 | 33884 ft | 414 kts | 315° |
| 2026-05-05 20:16 | 43.36976 | -88.94330 | 33878 ft | 414 kts | 315° |
| 2026-05-05 20:16 | 43.41822 | -88.98613 | 33876 ft | 414 kts | 315° |
| 2026-05-05 20:17 | 43.46674 | -89.02910 | 33879 ft | 414 kts | 315° |
| 2026-05-05 20:17 | 43.51523 | -89.07212 | 33880 ft | 414 kts | 315° |
| 2026-05-05 20:18 | 43.56338 | -89.11493 | 33878 ft | 414 kts | 315° |
| 2026-05-05 20:18 | 43.61169 | -89.15797 | 33876 ft | 413 kts | 315° |
| 2026-05-05 20:19 | 43.65996 | -89.20104 | 33878 ft | 412 kts | 315° |
| 2026-05-05 20:19 | 43.70814 | -89.24413 | 33875 ft | 412 kts | 315° |
| 2026-05-05 20:20 | 43.75626 | -89.28724 | 33874 ft | 410 kts | 315° |
| 2026-05-05 20:20 | 43.80374 | -89.32986 | 33871 ft | 409 kts | 315° |
| 2026-05-05 20:21 | 43.85137 | -89.37271 | 33876 ft | 407 kts | 315° |
| 2026-05-05 20:21 | 43.89887 | -89.41552 | 33879 ft | 406 kts | 315° |
| 2026-05-05 20:22 | 43.94587 | -89.45796 | 33880 ft | 405 kts | 315° |
| 2026-05-05 20:22 | 43.99313 | -89.50072 | 33886 ft | 406 kts | 315° |
| 2026-05-05 20:23 | 44.04043 | -89.54358 | 33884 ft | 405 kts | 315° |
| 2026-05-05 20:23 | 44.08759 | -89.58641 | 33883 ft | 404 kts | 315° |
| 2026-05-05 20:24 | 44.13462 | -89.62920 | 33886 ft | 403 kts | 315° |
| 2026-05-05 20:24 | 44.18158 | -89.67203 | 33883 ft | 404 kts | 315° |
| 2026-05-05 20:25 | 44.22859 | -89.71496 | 33893 ft | 404 kts | 315° |
| 2026-05-05 20:25 | 44.27537 | -89.75778 | 33896 ft | 405 kts | 315° |
| 2026-05-05 20:26 | 44.32239 | -89.80088 | 33898 ft | 404 kts | 315° |
| 2026-05-05 20:26 | 44.36946 | -89.84415 | 33898 ft | 404 kts | 315° |
| 2026-05-05 20:27 | 44.41648 | -89.88742 | 33897 ft | 404 kts | 315° |
| 2026-05-05 20:27 | 44.46342 | -89.93072 | 33897 ft | 404 kts | 315° |
| 2026-05-05 20:28 | 44.51009 | -89.97386 | 33901 ft | 404 kts | 315° |
| 2026-05-05 20:28 | 44.55705 | -90.01735 | 33897 ft | 405 kts | 315° |
| 2026-05-05 20:29 | 44.60414 | -90.06103 | 33899 ft | 406 kts | 315° |
| 2026-05-05 20:29 | 44.65133 | -90.10490 | 33898 ft | 406 kts | 315° |
| 2026-05-05 20:30 | 44.69835 | -90.14871 | 33896 ft | 408 kts | 315° |
| 2026-05-05 20:30 | 44.74574 | -90.19293 | 33898 ft | 409 kts | 315° |
| 2026-05-05 20:31 | 44.79331 | -90.23743 | 33900 ft | 410 kts | 315° |
| 2026-05-05 20:31 | 44.84092 | -90.28204 | 33899 ft | 412 kts | 315° |
| 2026-05-05 20:32 | 44.88842 | -90.32664 | 33891 ft | 413 kts | 315° |
| 2026-05-05 20:32 | 44.93642 | -90.37181 | 33898 ft | 416 kts | 315° |
| 2026-05-05 20:33 | 44.98470 | -90.41733 | 33903 ft | 418 kts | 315° |
| 2026-05-05 20:33 | 45.03314 | -90.46309 | 33901 ft | 419 kts | 316° |
| 2026-05-05 20:34 | 45.08174 | -90.50910 | 33901 ft | 421 kts | 316° |
| 2026-05-05 20:34 | 45.13063 | -90.55549 | 33904 ft | 423 kts | 316° |
| 2026-05-05 20:35 | 45.17937 | -90.60182 | 33903 ft | 425 kts | 316° |
| 2026-05-05 20:35 | 45.22861 | -90.64874 | 33913 ft | 427 kts | 316° |
| 2026-05-05 20:36 | 45.27803 | -90.69591 | 33914 ft | 428 kts | 316° |
| 2026-05-05 20:36 | 45.32756 | -90.74331 | 33913 ft | 430 kts | 317° |
| 2026-05-05 20:37 | 45.37701 | -90.79073 | 33922 ft | 432 kts | 317° |
| 2026-05-05 20:37 | 45.42692 | -90.83868 | 33922 ft | 433 kts | 317° |
| 2026-05-05 20:38 | 45.47696 | -90.88687 | 33927 ft | 435 kts | 317° |
| 2026-05-05 20:38 | 45.52682 | -90.93499 | 33930 ft | 435 kts | 317° |
| 2026-05-05 20:39 | 45.57699 | -90.98352 | 33931 ft | 436 kts | 317° |
| 2026-05-05 20:39 | 45.62741 | -91.03238 | 33925 ft | 437 kts | 317° |
| 2026-05-05 20:40 | 45.67776 | -91.08131 | 33920 ft | 438 kts | 318° |
| 2026-05-05 20:40 | 45.72815 | -91.13037 | 33920 ft | 439 kts | 318° |
| 2026-05-05 20:41 | 45.77837 | -91.17938 | 33922 ft | 439 kts | 318° |
| 2026-05-05 20:41 | 45.82896 | -91.22885 | 33911 ft | 440 kts | 318° |
| 2026-05-05 20:42 | 45.87964 | -91.27853 | 33905 ft | 441 kts | 318° |
| 2026-05-05 20:42 | 45.93034 | -91.32833 | 33905 ft | 442 kts | 318° |
| 2026-05-05 20:43 | 45.98116 | -91.37837 | 33891 ft | 443 kts | 318° |
| 2026-05-05 20:43 | 46.03168 | -91.42822 | 33899 ft | 443 kts | 319° |
| 2026-05-05 20:44 | 46.08255 | -91.47854 | 33901 ft | 443 kts | 319° |
| 2026-05-05 20:44 | 46.13343 | -91.52898 | 33906 ft | 444 kts | 319° |
| 2026-05-05 20:45 | 46.20979 | -91.60490 | 33903 ft | 444 kts | 319° |
| 2026-05-05 20:45 | 46.26056 | -91.65551 | 33902 ft | 445 kts | 319° |
| 2026-05-05 20:46 | 46.31159 | -91.70651 | 33896 ft | 446 kts | 319° |
| 2026-05-05 20:46 | 46.36268 | -91.75768 | 33902 ft | 446 kts | 319° |
| 2026-05-05 20:47 | 46.41384 | -91.80905 | 33894 ft | 448 kts | 319° |
| 2026-05-05 20:47 | 46.46514 | -91.86067 | 33904 ft | 449 kts | 319° |
| 2026-05-05 20:48 | 46.51645 | -91.91242 | 33910 ft | 449 kts | 319° |
| 2026-05-05 20:48 | 46.56748 | -91.96401 | 33918 ft | 450 kts | 319° |
| 2026-05-05 20:49 | 46.61888 | -92.01611 | 33919 ft | 451 kts | 319° |
| 2026-05-05 20:49 | 46.67028 | -92.06831 | 33920 ft | 450 kts | 319° |
| 2026-05-05 20:50 | 46.71338 | -92.11220 | 33919 ft | 451 kts | 319° |
| 2026-05-05 20:50 | 46.77324 | -92.17329 | 33890 ft | 451 kts | 318° |
| 2026-05-05 20:51 | 46.81699 | -92.23581 | 33891 ft | 428 kts | 301° |
| 2026-05-05 20:51 | 46.83353 | -92.27116 | 33862 ft | 417 kts | 300° |
| 2026-05-05 20:51 | 46.84964 | -92.30597 | 33862 ft | 411 kts | 300° |
| 2026-05-05 20:52 | 46.88161 | -92.37584 | 33900 ft | 419 kts | 300° |
| 2026-05-05 20:52 | 46.91455 | -92.44787 | 33906 ft | 437 kts | 300° |
| 2026-05-05 20:53 | 46.94856 | -92.52235 | 33908 ft | 441 kts | 300° |
| 2026-05-05 20:53 | 46.98292 | -92.59799 | 33945 ft | 455 kts | 300° |
| 2026-05-05 20:54 | 47.01838 | -92.67606 | 34081 ft | 463 kts | 300° |
| 2026-05-05 20:54 | 47.03617 | -92.71534 | 34545 ft | 461 kts | 300° |
| 2026-05-05 20:54 | 47.05393 | -92.75466 | 34918 ft | 462 kts | 300° |
| 2026-05-05 20:55 | 47.07167 | -92.79399 | 35284 ft | 462 kts | 300° |
| 2026-05-05 20:55 | 47.08942 | -92.83336 | 35666 ft | 463 kts | 300° |
| 2026-05-05 20:55 | 47.10721 | -92.87288 | 35926 ft | 466 kts | 300° |
| 2026-05-05 20:55 | 47.11910 | -92.89936 | 35918 ft | 470 kts | 300° |
| 2026-05-05 20:56 | 47.16096 | -92.99262 | 35916 ft | 468 kts | 300° |
| 2026-05-05 20:56 | 47.19068 | -93.05909 | 35913 ft | 468 kts | 300° |
| 2026-05-05 20:57 | 47.22649 | -93.13936 | 35934 ft | 469 kts | 300° |
| 2026-05-05 20:57 | 47.26228 | -93.21982 | 35934 ft | 469 kts | 300° |
| 2026-05-05 20:58 | 47.29798 | -93.30033 | 35931 ft | 469 kts | 300° |
| 2026-05-05 20:58 | 47.33363 | -93.38095 | 35939 ft | 468 kts | 300° |
| 2026-05-05 20:59 | 47.36919 | -93.46162 | 35942 ft | 469 kts | 300° |
| 2026-05-05 20:59 | 47.40455 | -93.54205 | 35950 ft | 470 kts | 300° |
| 2026-05-05 21:00 | 47.43964 | -93.62207 | 35930 ft | 459 kts | 300° |
| 2026-05-05 21:00 | 47.47418 | -93.70115 | 35946 ft | 457 kts | 300° |
| 2026-05-05 21:01 | 47.50870 | -93.78035 | 35946 ft | 458 kts | 300° |
| 2026-05-05 21:01 | 47.54327 | -93.85991 | 35954 ft | 460 kts | 300° |
| 2026-05-05 21:02 | 47.57770 | -93.93938 | 35961 ft | 461 kts | 300° |
| 2026-05-05 21:02 | 47.61235 | -94.01959 | 35965 ft | 461 kts | 300° |
| 2026-05-05 21:03 | 47.64691 | -94.09981 | 35975 ft | 462 kts | 300° |
| 2026-05-05 21:03 | 47.68147 | -94.18030 | 35980 ft | 462 kts | 300° |
| 2026-05-05 21:04 | 47.71597 | -94.26087 | 35971 ft | 462 kts | 300° |
| 2026-05-05 21:04 | 47.75019 | -94.34103 | 35977 ft | 463 kts | 300° |
| 2026-05-05 21:05 | 47.78463 | -94.42193 | 35975 ft | 464 kts | 300° |
| 2026-05-05 21:05 | 47.81909 | -94.50313 | 35978 ft | 463 kts | 300° |
| 2026-05-05 21:06 | 47.85347 | -94.58438 | 35976 ft | 463 kts | 300° |
| 2026-05-05 21:06 | 47.88780 | -94.66574 | 35966 ft | 464 kts | 300° |
| 2026-05-05 21:07 | 47.92194 | -94.74692 | 35975 ft | 464 kts | 300° |
| 2026-05-05 21:07 | 47.95626 | -94.82876 | 35963 ft | 465 kts | 300° |
| 2026-05-05 21:08 | 47.99055 | -94.91079 | 35971 ft | 466 kts | 300° |
| 2026-05-05 21:08 | 48.02479 | -94.99292 | 35973 ft | 466 kts | 300° |
| 2026-05-05 21:09 | 48.05904 | -95.07535 | 35978 ft | 466 kts | 300° |
| 2026-05-05 21:09 | 48.09302 | -95.15738 | 35981 ft | 467 kts | 300° |
| 2026-05-05 21:10 | 48.12720 | -95.24014 | 35984 ft | 467 kts | 300° |
| 2026-05-05 21:10 | 48.16127 | -95.32289 | 35991 ft | 467 kts | 300° |
| 2026-05-05 21:11 | 48.19536 | -95.40593 | 35996 ft | 467 kts | 300° |
| 2026-05-05 21:11 | 48.22936 | -95.48903 | 35996 ft | 468 kts | 300° |
| 2026-05-05 21:12 | 48.26311 | -95.57175 | 35995 ft | 468 kts | 300° |
| 2026-05-05 21:12 | 48.29705 | -95.65519 | 36003 ft | 468 kts | 300° |
| 2026-05-05 21:13 | 48.33093 | -95.73877 | 36010 ft | 468 kts | 300° |
| 2026-05-05 21:13 | 48.36480 | -95.82257 | 36011 ft | 469 kts | 300° |
| 2026-05-05 21:14 | 48.39867 | -95.90664 | 36017 ft | 469 kts | 300° |
| 2026-05-05 21:14 | 48.43218 | -95.99007 | 36020 ft | 469 kts | 300° |
| 2026-05-05 21:15 | 48.46594 | -96.07438 | 36023 ft | 470 kts | 300° |
| 2026-05-05 21:15 | 48.49965 | -96.15884 | 36026 ft | 470 kts | 300° |
| 2026-05-05 21:16 | 48.53332 | -96.24346 | 36024 ft | 470 kts | 300° |
| 2026-05-05 21:16 | 48.56690 | -96.32814 | 36032 ft | 470 kts | 300° |
| 2026-05-05 21:17 | 48.60027 | -96.41253 | 36030 ft | 470 kts | 300° |
| 2026-05-05 21:17 | 48.63371 | -96.49740 | 36025 ft | 469 kts | 300° |
| 2026-05-05 21:18 | 48.66707 | -96.58232 | 36021 ft | 469 kts | 300° |
| 2026-05-05 21:18 | 48.70042 | -96.66747 | 36019 ft | 470 kts | 300° |
| 2026-05-05 21:19 | 48.73375 | -96.75288 | 36019 ft | 472 kts | 300° |
| 2026-05-05 21:19 | 48.76715 | -96.83872 | 36017 ft | 472 kts | 300° |
| 2026-05-05 21:20 | 48.80025 | -96.92407 | 36018 ft | 472 kts | 300° |
| 2026-05-05 21:20 | 48.83347 | -97.01000 | 36013 ft | 471 kts | 300° |
| 2026-05-05 21:21 | 48.86658 | -97.09594 | 36014 ft | 471 kts | 300° |
| 2026-05-05 21:21 | 48.89959 | -97.18190 | 36021 ft | 471 kts | 300° |
| 2026-05-05 21:22 | 48.93257 | -97.26803 | 36026 ft | 471 kts | 300° |
| 2026-05-05 21:22 | 48.96527 | -97.35373 | 36036 ft | 471 kts | 300° |
| 2026-05-05 21:23 | 48.99819 | -97.44030 | 36038 ft | 471 kts | 300° |
| 2026-05-05 21:23 | 49.03100 | -97.52686 | 36036 ft | 471 kts | 300° |
| 2026-05-05 21:24 | 49.06377 | -97.61358 | 36043 ft | 472 kts | 300° |
| 2026-05-05 21:24 | 49.09626 | -97.69988 | 36048 ft | 472 kts | 300° |
| 2026-05-05 21:25 | 49.12893 | -97.78691 | 36047 ft | 472 kts | 300° |
| 2026-05-05 21:25 | 49.16156 | -97.87415 | 36049 ft | 473 kts | 300° |
| 2026-05-05 21:26 | 49.19418 | -97.96164 | 36049 ft | 473 kts | 300° |
| 2026-05-05 21:26 | 49.22647 | -98.04853 | 36053 ft | 473 kts | 300° |
| 2026-05-05 21:27 | 49.25895 | -98.13623 | 36052 ft | 473 kts | 300° |
| 2026-05-05 21:27 | 49.29138 | -98.22409 | 36053 ft | 474 kts | 300° |
| 2026-05-05 21:28 | 49.32375 | -98.31207 | 36055 ft | 474 kts | 300° |
| 2026-05-05 21:28 | 49.35606 | -98.40020 | 36055 ft | 474 kts | 300° |
| 2026-05-05 21:29 | 49.38829 | -98.48843 | 36056 ft | 474 kts | 300° |
| 2026-05-05 21:29 | 49.42055 | -98.57699 | 36055 ft | 474 kts | 300° |
| 2026-05-05 21:30 | 49.45248 | -98.66498 | 36060 ft | 475 kts | 300° |
| 2026-05-05 21:30 | 49.48466 | -98.75396 | 36058 ft | 475 kts | 300° |
| 2026-05-05 21:31 | 49.51673 | -98.84293 | 36059 ft | 475 kts | 300° |
| 2026-05-05 21:31 | 49.54878 | -98.93215 | 36063 ft | 476 kts | 300° |
| 2026-05-05 21:32 | 49.58080 | -99.02161 | 36066 ft | 477 kts | 300° |
| 2026-05-05 21:32 | 49.61260 | -99.11075 | 36076 ft | 478 kts | 300° |
| 2026-05-05 21:33 | 49.64453 | -99.20058 | 36071 ft | 477 kts | 300° |
| 2026-05-05 21:33 | 49.67637 | -99.29047 | 36071 ft | 476 kts | 299° |
| 2026-05-05 21:34 | 49.70805 | -99.38022 | 36073 ft | 476 kts | 300° |
| 2026-05-05 21:34 | 49.73973 | -99.47027 | 36076 ft | 477 kts | 299° |
| 2026-05-05 21:35 | 49.77112 | -99.55980 | 36062 ft | 476 kts | 299° |
| 2026-05-05 21:35 | 49.80268 | -99.65017 | 36049 ft | 477 kts | 299° |
| 2026-05-05 21:36 | 49.83420 | -99.74073 | 36040 ft | 478 kts | 299° |
| 2026-05-05 21:36 | 49.86556 | -99.83115 | 36034 ft | 479 kts | 299° |
| 2026-05-05 21:37 | 49.89711 | -99.92241 | 36031 ft | 479 kts | 299° |
| 2026-05-05 21:37 | 49.92898 | -100.01326 | 36030 ft | 479 kts | 301° |
| 2026-05-05 21:38 | 49.96140 | -100.10366 | 36029 ft | 480 kts | 300° |
| 2026-05-05 21:38 | 49.99313 | -100.19400 | 36042 ft | 479 kts | 300° |
| 2026-05-05 21:39 | 50.02526 | -100.28483 | 36055 ft | 479 kts | 300° |
| 2026-05-05 21:39 | 50.05724 | -100.37613 | 36068 ft | 480 kts | 300° |
| 2026-05-05 21:40 | 50.08922 | -100.46744 | 36072 ft | 480 kts | 300° |
| 2026-05-05 21:40 | 50.12109 | -100.55894 | 36086 ft | 479 kts | 300° |
| 2026-05-05 21:41 | 50.15283 | -100.65029 | 36086 ft | 478 kts | 300° |
| 2026-05-05 21:41 | 50.18422 | -100.74099 | 36083 ft | 478 kts | 300° |
| 2026-05-05 21:42 | 50.21584 | -100.83268 | 36087 ft | 479 kts | 300° |
| 2026-05-05 21:42 | 50.24740 | -100.92454 | 36088 ft | 481 kts | 300° |
| 2026-05-05 21:43 | 50.27897 | -101.01676 | 36089 ft | 481 kts | 300° |
| 2026-05-05 21:43 | 50.31047 | -101.10910 | 36086 ft | 480 kts | 300° |
| 2026-05-05 21:44 | 50.34187 | -101.20149 | 36086 ft | 481 kts | 300° |
| 2026-05-05 21:44 | 50.37302 | -101.29348 | 36082 ft | 481 kts | 300° |
| 2026-05-05 21:45 | 50.40433 | -101.38627 | 36085 ft | 481 kts | 300° |
| 2026-05-05 21:45 | 50.43023 | -101.46330 | 36086 ft | 480 kts | 300° |
| 2026-05-05 21:46 | 50.46132 | -101.55606 | 36085 ft | 479 kts | 300° |
| 2026-05-05 21:46 | 50.49229 | -101.64883 | 36085 ft | 479 kts | 300° |
| 2026-05-05 21:47 | 50.52316 | -101.74161 | 36088 ft | 479 kts | 300° |
| 2026-05-05 21:47 | 50.55383 | -101.83414 | 36089 ft | 480 kts | 300° |
| 2026-05-05 21:48 | 50.58463 | -101.92743 | 36089 ft | 481 kts | 300° |
| 2026-05-05 21:48 | 50.61539 | -102.02095 | 36091 ft | 480 kts | 300° |
| 2026-05-05 21:49 | 50.64614 | -102.11476 | 36095 ft | 480 kts | 300° |
| 2026-05-05 21:49 | 50.67646 | -102.20763 | 36096 ft | 479 kts | 300° |
| 2026-05-05 21:50 | 50.70689 | -102.30114 | 36100 ft | 480 kts | 300° |
| 2026-05-05 21:50 | 50.73730 | -102.39499 | 36106 ft | 480 kts | 300° |
| 2026-05-05 21:51 | 50.76777 | -102.48938 | 36109 ft | 481 kts | 300° |
| 2026-05-05 21:51 | 50.79812 | -102.58372 | 36108 ft | 481 kts | 300° |
| 2026-05-05 21:52 | 50.84316 | -102.72444 | 36108 ft | 479 kts | 300° |
| 2026-05-05 21:53 | 50.87313 | -102.81851 | 36116 ft | 478 kts | 300° |
| 2026-05-05 21:53 | 50.90301 | -102.91264 | 36114 ft | 479 kts | 300° |
| 2026-05-05 21:54 | 50.93288 | -103.00712 | 36114 ft | 480 kts | 300° |
| 2026-05-05 21:54 | 50.96278 | -103.10204 | 36114 ft | 481 kts | 300° |
| 2026-05-05 21:55 | 50.99253 | -103.19689 | 36117 ft | 479 kts | 300° |
| 2026-05-05 21:55 | 51.02219 | -103.29176 | 36125 ft | 479 kts | 300° |
| 2026-05-05 21:56 | 51.05154 | -103.38607 | 36125 ft | 478 kts | 300° |
| 2026-05-05 21:56 | 51.08100 | -103.48104 | 36129 ft | 477 kts | 300° |
| 2026-05-05 21:57 | 51.11030 | -103.57589 | 36143 ft | 477 kts | 299° |
| 2026-05-05 21:57 | 51.13944 | -103.67058 | 36144 ft | 479 kts | 299° |
| 2026-05-05 21:58 | 51.16869 | -103.76603 | 36150 ft | 479 kts | 299° |
| 2026-05-05 21:58 | 51.19767 | -103.86094 | 36147 ft | 478 kts | 299° |
| 2026-05-05 21:59 | 51.22669 | -103.95635 | 36140 ft | 477 kts | 299° |
| 2026-05-05 21:59 | 51.25560 | -104.05179 | 36135 ft | 476 kts | 299° |
| 2026-05-05 22:00 | 51.28437 | -104.14713 | 36140 ft | 476 kts | 299° |
| 2026-05-05 22:00 | 51.31274 | -104.24150 | 36155 ft | 476 kts | 299° |
| 2026-05-05 22:01 | 51.34141 | -104.33726 | 36167 ft | 478 kts | 299° |
| 2026-05-05 22:01 | 51.37001 | -104.43320 | 36164 ft | 477 kts | 299° |
| 2026-05-05 22:02 | 51.39852 | -104.52919 | 36159 ft | 476 kts | 299° |
| 2026-05-05 22:02 | 51.42670 | -104.62445 | 36156 ft | 475 kts | 299° |
| 2026-05-05 22:03 | 51.45493 | -104.72025 | 36152 ft | 475 kts | 299° |
| 2026-05-05 22:03 | 51.48308 | -104.81620 | 36147 ft | 475 kts | 299° |
| 2026-05-05 22:04 | 51.51118 | -104.91231 | 36153 ft | 476 kts | 299° |
| 2026-05-05 22:04 | 51.53923 | -105.00868 | 36152 ft | 476 kts | 298° |
| 2026-05-05 22:05 | 51.56720 | -105.10514 | 36155 ft | 475 kts | 298° |
| 2026-05-05 22:05 | 51.59485 | -105.20090 | 36150 ft | 474 kts | 298° |
| 2026-05-05 22:06 | 51.62252 | -105.29712 | 36154 ft | 474 kts | 298° |
| 2026-05-05 22:06 | 51.65018 | -105.39368 | 36155 ft | 475 kts | 298° |
| 2026-05-05 22:07 | 51.67785 | -105.49067 | 36159 ft | 475 kts | 298° |
| 2026-05-05 22:07 | 51.70520 | -105.58696 | 36157 ft | 475 kts | 298° |
| 2026-05-05 22:08 | 51.73263 | -105.68393 | 36162 ft | 473 kts | 298° |
| 2026-05-05 22:08 | 51.75991 | -105.78073 | 36166 ft | 473 kts | 298° |
| 2026-05-05 22:09 | 51.78690 | -105.87690 | 36177 ft | 472 kts | 298° |
| 2026-05-05 22:09 | 51.81395 | -105.97372 | 36175 ft | 472 kts | 298° |
| 2026-05-05 22:10 | 51.84090 | -106.07054 | 36171 ft | 472 kts | 298° |
| 2026-05-05 22:10 | 51.86771 | -106.16729 | 36171 ft | 471 kts | 298° |
| 2026-05-05 22:11 | 51.89428 | -106.26354 | 36184 ft | 472 kts | 298° |
| 2026-05-05 22:11 | 51.92101 | -106.36081 | 36177 ft | 473 kts | 298° |
| 2026-05-05 22:12 | 51.94768 | -106.45823 | 36165 ft | 472 kts | 298° |
| 2026-05-05 22:12 | 51.97417 | -106.55544 | 36150 ft | 470 kts | 298° |
| 2026-05-05 22:13 | 52.00054 | -106.65258 | 36139 ft | 470 kts | 298° |
| 2026-05-05 22:13 | 52.02664 | -106.74918 | 36135 ft | 470 kts | 298° |
| 2026-05-05 22:14 | 52.05278 | -106.84631 | 36138 ft | 469 kts | 298° |
| 2026-05-05 22:14 | 52.07885 | -106.94357 | 36146 ft | 469 kts | 298° |
| 2026-05-05 22:15 | 52.10481 | -107.04084 | 36156 ft | 469 kts | 298° |
| 2026-05-05 22:15 | 52.13068 | -107.13822 | 36173 ft | 468 kts | 298° |
| 2026-05-05 22:16 | 52.15649 | -107.23575 | 36204 ft | 469 kts | 297° |
| 2026-05-05 22:16 | 52.18221 | -107.33339 | 36215 ft | 469 kts | 297° |
| 2026-05-05 22:17 | 52.20785 | -107.43113 | 36213 ft | 468 kts | 297° |
| 2026-05-05 22:17 | 52.23333 | -107.52866 | 36206 ft | 467 kts | 297° |
| 2026-05-05 22:18 | 52.25854 | -107.62558 | 36213 ft | 467 kts | 297° |
| 2026-05-05 22:18 | 52.28385 | -107.72332 | 36209 ft | 467 kts | 297° |
| 2026-05-05 22:19 | 52.30907 | -107.82115 | 36218 ft | 467 kts | 297° |
| 2026-05-05 22:19 | 52.33427 | -107.91927 | 36217 ft | 468 kts | 297° |
| 2026-05-05 22:20 | 52.35936 | -108.01743 | 36223 ft | 467 kts | 297° |
| 2026-05-05 22:20 | 52.38430 | -108.11545 | 36223 ft | 466 kts | 297° |
| 2026-05-05 22:21 | 52.40909 | -108.21329 | 36232 ft | 464 kts | 297° |
| 2026-05-05 22:21 | 52.43356 | -108.31026 | 36228 ft | 463 kts | 298° |
| 2026-05-05 22:22 | 52.45814 | -108.40812 | 36231 ft | 464 kts | 297° |
| 2026-05-05 22:22 | 52.48263 | -108.50605 | 36234 ft | 463 kts | 298° |
| 2026-05-05 22:23 | 52.50688 | -108.60347 | 36241 ft | 462 kts | 298° |
| 2026-05-05 22:23 | 52.53112 | -108.70125 | 36238 ft | 462 kts | 298° |
| 2026-05-05 22:24 | 52.55526 | -108.79907 | 36242 ft | 462 kts | 298° |
| 2026-05-05 22:24 | 52.57934 | -108.89709 | 36241 ft | 461 kts | 298° |
| 2026-05-05 22:25 | 52.60325 | -108.99486 | 36247 ft | 460 kts | 298° |
| 2026-05-05 22:25 | 52.62707 | -109.09264 | 36249 ft | 460 kts | 298° |
| 2026-05-05 22:26 | 52.65066 | -109.18998 | 36261 ft | 460 kts | 298° |
| 2026-05-05 22:26 | 52.67427 | -109.28780 | 36257 ft | 459 kts | 298° |
| 2026-05-05 22:27 | 52.69762 | -109.38500 | 36250 ft | 457 kts | 298° |
| 2026-05-05 22:27 | 52.72096 | -109.48257 | 36245 ft | 457 kts | 298° |
| 2026-05-05 22:28 | 52.74421 | -109.58022 | 36250 ft | 457 kts | 298° |
| 2026-05-05 22:28 | 52.76742 | -109.67814 | 36251 ft | 457 kts | 298° |
| 2026-05-05 22:29 | 52.79047 | -109.77586 | 36259 ft | 456 kts | 298° |
| 2026-05-05 22:29 | 52.81340 | -109.87347 | 36252 ft | 454 kts | 298° |
| 2026-05-05 22:30 | 52.83604 | -109.97025 | 36261 ft | 454 kts | 298° |
| 2026-05-05 22:30 | 52.85877 | -110.06792 | 36254 ft | 454 kts | 298° |
| 2026-05-05 22:31 | 52.88134 | -110.16534 | 36264 ft | 453 kts | 298° |
| 2026-05-05 22:31 | 52.90385 | -110.26295 | 36258 ft | 453 kts | 298° |
| 2026-05-05 22:32 | 52.92627 | -110.36062 | 36273 ft | 453 kts | 298° |
| 2026-05-05 22:32 | 52.94862 | -110.45837 | 36270 ft | 454 kts | 298° |
| 2026-05-05 22:33 | 52.97091 | -110.55640 | 36278 ft | 454 kts | 297° |
| 2026-05-05 22:33 | 52.99297 | -110.65384 | 36270 ft | 454 kts | 297° |
| 2026-05-05 22:34 | 53.01506 | -110.75198 | 36102 ft | 450 kts | 300° |
| 2026-05-05 22:34 | 53.02589 | -110.80036 | 36218 ft | 444 kts | 300° |
| 2026-05-05 22:34 | 53.03772 | -110.84753 | 36292 ft | 439 kts | 306° |
| 2026-05-05 22:35 | 53.06579 | -110.93791 | 36283 ft | 440 kts | 306° |
| 2026-05-05 22:35 | 53.08890 | -111.01318 | 36279 ft | 438 kts | 306° |
| 2026-05-05 22:36 | 53.11668 | -111.10329 | 36277 ft | 436 kts | 306° |
| 2026-05-05 22:36 | 53.14417 | -111.19312 | 36281 ft | 435 kts | 306° |
| 2026-05-05 22:37 | 53.17145 | -111.28249 | 36281 ft | 434 kts | 306° |
| 2026-05-05 22:37 | 53.19881 | -111.37246 | 36278 ft | 434 kts | 306° |
| 2026-05-05 22:38 | 53.22607 | -111.46246 | 36276 ft | 434 kts | 306° |
| 2026-05-05 22:38 | 53.25326 | -111.55255 | 36277 ft | 434 kts | 306° |
| 2026-05-05 22:39 | 53.28029 | -111.64248 | 36278 ft | 433 kts | 306° |
| 2026-05-05 22:39 | 53.30710 | -111.73198 | 36279 ft | 432 kts | 306° |
| 2026-05-05 22:40 | 53.33391 | -111.82186 | 36279 ft | 431 kts | 306° |
| 2026-05-05 22:40 | 53.36061 | -111.91166 | 36284 ft | 430 kts | 306° |
| 2026-05-05 22:41 | 53.38719 | -112.00140 | 36277 ft | 430 kts | 306° |
| 2026-05-05 22:41 | 53.41368 | -112.09121 | 36274 ft | 430 kts | 306° |
| 2026-05-05 22:42 | 53.43989 | -112.18042 | 36273 ft | 429 kts | 306° |
| 2026-05-05 22:42 | 53.46621 | -112.27030 | 36269 ft | 428 kts | 306° |
| 2026-05-05 22:43 | 53.49229 | -112.35968 | 36268 ft | 428 kts | 305° |
| 2026-05-05 22:43 | 53.51841 | -112.44958 | 36270 ft | 428 kts | 305° |
| 2026-05-05 22:44 | 53.54445 | -112.53957 | 36266 ft | 427 kts | 305° |
| 2026-05-05 22:44 | 53.57037 | -112.62941 | 36268 ft | 427 kts | 305° |
| 2026-05-05 22:45 | 53.59622 | -112.71942 | 36264 ft | 426 kts | 305° |
| 2026-05-05 22:45 | 53.62197 | -112.80939 | 36277 ft | 427 kts | 305° |
| 2026-05-05 22:46 | 53.64759 | -112.89927 | 36276 ft | 428 kts | 305° |
| 2026-05-05 22:46 | 53.67329 | -112.98979 | 36274 ft | 427 kts | 305° |
| 2026-05-05 22:47 | 53.69888 | -113.08024 | 36273 ft | 426 kts | 305° |
| 2026-05-05 22:47 | 53.72434 | -113.17060 | 36274 ft | 425 kts | 305° |
| 2026-05-05 22:48 | 53.74966 | -113.26080 | 36270 ft | 425 kts | 304° |
| 2026-05-05 22:48 | 53.77483 | -113.35081 | 36257 ft | 425 kts | 304° |
| 2026-05-05 22:49 | 53.80006 | -113.44143 | 36244 ft | 425 kts | 304° |
| 2026-05-05 22:49 | 53.82520 | -113.53203 | 36228 ft | 424 kts | 304° |
| 2026-05-05 22:50 | 53.85005 | -113.62197 | 36225 ft | 424 kts | 304° |
| 2026-05-05 22:50 | 53.87505 | -113.71275 | 36219 ft | 425 kts | 304° |
| 2026-05-05 22:51 | 53.89997 | -113.80370 | 36224 ft | 425 kts | 304° |
| 2026-05-05 22:51 | 53.92468 | -113.89417 | 36230 ft | 425 kts | 304° |
| 2026-05-05 22:52 | 53.94948 | -113.98532 | 36232 ft | 425 kts | 304° |
| 2026-05-05 22:52 | 53.97420 | -114.07659 | 36247 ft | 425 kts | 303° |
| 2026-05-05 22:53 | 53.99884 | -114.16787 | 36241 ft | 425 kts | 303° |
| 2026-05-05 22:53 | 54.02343 | -114.25934 | 36245 ft | 425 kts | 303° |
| 2026-05-05 22:54 | 54.04789 | -114.35072 | 36253 ft | 424 kts | 303° |
| 2026-05-05 22:54 | 54.07215 | -114.44171 | 36244 ft | 424 kts | 303° |
| 2026-05-05 22:55 | 54.09641 | -114.53309 | 36236 ft | 423 kts | 303° |
| 2026-05-05 22:55 | 54.12060 | -114.62452 | 36237 ft | 422 kts | 303° |
| 2026-05-05 22:56 | 54.14471 | -114.71604 | 36232 ft | 423 kts | 303° |
| 2026-05-05 22:56 | 54.16858 | -114.80702 | 36230 ft | 422 kts | 302° |
| 2026-05-05 22:57 | 54.19252 | -114.89861 | 36224 ft | 422 kts | 302° |
| 2026-05-05 22:57 | 54.21642 | -114.99045 | 36220 ft | 422 kts | 302° |
| 2026-05-05 22:58 | 54.24025 | -115.08237 | 36216 ft | 423 kts | 302° |
| 2026-05-05 22:58 | 54.26401 | -115.17444 | 36208 ft | 422 kts | 302° |
| 2026-05-05 22:59 | 54.28751 | -115.26585 | 36199 ft | 422 kts | 302° |
| 2026-05-05 22:59 | 54.31114 | -115.35812 | 36180 ft | 423 kts | 302° |
| 2026-05-05 23:00 | 54.34650 | -115.49696 | 36160 ft | 424 kts | 301° |
| 2026-05-05 23:00 | 54.36984 | -115.58906 | 36162 ft | 424 kts | 301° |
| 2026-05-05 23:01 | 54.39331 | -115.68207 | 36156 ft | 424 kts | 301° |
| 2026-05-05 23:01 | 54.41665 | -115.77496 | 36155 ft | 424 kts | 301° |
| 2026-05-05 23:02 | 54.43994 | -115.86803 | 36149 ft | 424 kts | 301° |
| 2026-05-05 23:02 | 54.46318 | -115.96131 | 36161 ft | 424 kts | 301° |
| 2026-05-05 23:03 | 54.48634 | -116.05465 | 36165 ft | 424 kts | 300° |
| 2026-05-05 23:03 | 54.50936 | -116.14782 | 36158 ft | 424 kts | 300° |
| 2026-05-05 23:04 | 54.53227 | -116.24093 | 36153 ft | 424 kts | 300° |
| 2026-05-05 23:04 | 54.55525 | -116.33472 | 36145 ft | 424 kts | 300° |
| 2026-05-05 23:05 | 54.57812 | -116.42849 | 36146 ft | 423 kts | 300° |
| 2026-05-05 23:05 | 54.60075 | -116.52164 | 36145 ft | 423 kts | 300° |
| 2026-05-05 23:06 | 54.62344 | -116.61545 | 36142 ft | 424 kts | 299° |
| 2026-05-05 23:06 | 54.64605 | -116.70940 | 36139 ft | 423 kts | 299° |
| 2026-05-05 23:07 | 54.66860 | -116.80339 | 36140 ft | 423 kts | 299° |
| 2026-05-05 23:07 | 54.69104 | -116.89745 | 36140 ft | 423 kts | 299° |
| 2026-05-05 23:08 | 54.71337 | -116.99137 | 36139 ft | 422 kts | 299° |
| 2026-05-05 23:08 | 54.73560 | -117.08528 | 36145 ft | 422 kts | 298° |
| 2026-05-05 23:09 | 54.75773 | -117.17922 | 36135 ft | 423 kts | 298° |
| 2026-05-05 23:09 | 54.77986 | -117.27357 | 36134 ft | 423 kts | 298° |
| 2026-05-05 23:10 | 54.80194 | -117.36810 | 36141 ft | 422 kts | 298° |
| 2026-05-05 23:10 | 54.82393 | -117.46265 | 36134 ft | 423 kts | 298° |
| 2026-05-05 23:11 | 54.84588 | -117.55747 | 36134 ft | 423 kts | 298° |
| 2026-05-05 23:11 | 54.86759 | -117.65168 | 36133 ft | 422 kts | 297° |
| 2026-05-05 23:12 | 54.88938 | -117.74663 | 36129 ft | 423 kts | 297° |
| 2026-05-05 23:12 | 54.91110 | -117.84170 | 36128 ft | 423 kts | 297° |
| 2026-05-05 23:13 | 54.93260 | -117.93627 | 36139 ft | 423 kts | 297° |
| 2026-05-05 23:13 | 54.95422 | -118.03174 | 36137 ft | 424 kts | 297° |
| 2026-05-05 23:14 | 54.97576 | -118.12738 | 36127 ft | 424 kts | 297° |
| 2026-05-05 23:14 | 54.99721 | -118.22296 | 36116 ft | 424 kts | 296° |
| 2026-05-05 23:15 | 55.01863 | -118.31887 | 36117 ft | 425 kts | 296° |
| 2026-05-05 23:15 | 55.03998 | -118.41494 | 36103 ft | 425 kts | 296° |
| 2026-05-05 23:16 | 55.06119 | -118.51079 | 36080 ft | 426 kts | 296° |
| 2026-05-05 23:16 | 55.08245 | -118.60737 | 36068 ft | 426 kts | 296° |
| 2026-05-05 23:17 | 55.10366 | -118.70408 | 36048 ft | 426 kts | 295° |
| 2026-05-05 23:17 | 55.12483 | -118.80113 | 36038 ft | 428 kts | 295° |
| 2026-05-05 23:18 | 55.14584 | -118.89788 | 36038 ft | 427 kts | 295° |
| 2026-05-05 23:18 | 55.16688 | -118.99523 | 36041 ft | 427 kts | 295° |
| 2026-05-05 23:19 | 55.19281 | -119.08811 | 36065 ft | 424 kts | 302° |
| 2026-05-05 23:19 | 55.22106 | -119.17806 | 36079 ft | 424 kts | 302° |
| 2026-05-05 23:20 | 55.24952 | -119.26869 | 36085 ft | 425 kts | 302° |
| 2026-05-05 23:20 | 55.27793 | -119.35966 | 36091 ft | 424 kts | 301° |
| 2026-05-05 23:21 | 55.30623 | -119.45057 | 36089 ft | 424 kts | 301° |
| 2026-05-05 23:21 | 55.33427 | -119.54097 | 36086 ft | 424 kts | 301° |
| 2026-05-05 23:22 | 55.36246 | -119.63222 | 36090 ft | 425 kts | 301° |
| 2026-05-05 23:22 | 55.38586 | -119.70825 | 36072 ft | 425 kts | 301° |
| 2026-05-05 23:23 | 55.41397 | -119.79987 | 36065 ft | 425 kts | 301° |
| 2026-05-05 23:23 | 55.44202 | -119.89166 | 36045 ft | 426 kts | 300° |
| 2026-05-05 23:24 | 55.46990 | -119.98326 | 36030 ft | 426 kts | 300° |
| 2026-05-05 23:24 | 55.49786 | -120.07550 | 36042 ft | 426 kts | 300° |
| 2026-05-05 23:25 | 55.52575 | -120.16783 | 36033 ft | 426 kts | 300° |
| 2026-05-05 23:25 | 55.55357 | -120.26030 | 36027 ft | 426 kts | 300° |
| 2026-05-05 23:26 | 55.58134 | -120.35297 | 36020 ft | 427 kts | 300° |
| 2026-05-05 23:26 | 55.60893 | -120.44538 | 36019 ft | 428 kts | 299° |
| 2026-05-05 23:27 | 55.63666 | -120.53865 | 36016 ft | 428 kts | 299° |
| 2026-05-05 23:27 | 55.66434 | -120.63212 | 36020 ft | 428 kts | 299° |
| 2026-05-05 23:28 | 55.69195 | -120.72574 | 36015 ft | 428 kts | 299° |
| 2026-05-05 23:28 | 55.71946 | -120.81936 | 36017 ft | 427 kts | 298° |
| 2026-05-05 23:29 | 55.74668 | -120.91239 | 36014 ft | 428 kts | 298° |
| 2026-05-05 23:29 | 55.77408 | -121.00639 | 36008 ft | 429 kts | 298° |
| 2026-05-05 23:30 | 55.80146 | -121.10073 | 35997 ft | 429 kts | 298° |
| 2026-05-05 23:30 | 55.82886 | -121.19547 | 35991 ft | 431 kts | 298° |
| 2026-05-05 23:31 | 55.85667 | -121.28905 | 35979 ft | 429 kts | 299° |
| 2026-05-05 23:31 | 55.88491 | -121.38286 | 35973 ft | 430 kts | 298° |
| 2026-05-05 23:32 | 55.91286 | -121.47721 | 35975 ft | 430 kts | 298° |
| 2026-05-05 23:32 | 55.94076 | -121.57105 | 35977 ft | 431 kts | 298° |
| 2026-05-05 23:33 | 55.96871 | -121.66587 | 35978 ft | 432 kts | 298° |
| 2026-05-05 23:33 | 55.99669 | -121.76095 | 35981 ft | 433 kts | 297° |
| 2026-05-05 23:34 | 56.02465 | -121.85644 | 35981 ft | 432 kts | 297° |
| 2026-05-05 23:34 | 56.05250 | -121.95191 | 35969 ft | 432 kts | 297° |
| 2026-05-05 23:35 | 56.08007 | -122.04684 | 35965 ft | 433 kts | 297° |
| 2026-05-05 23:35 | 56.10783 | -122.14281 | 35958 ft | 433 kts | 297° |
| 2026-05-05 23:36 | 56.13546 | -122.23872 | 35959 ft | 433 kts | 297° |
| 2026-05-05 23:36 | 56.16301 | -122.33473 | 35961 ft | 433 kts | 296° |
| 2026-05-05 23:37 | 56.19036 | -122.43046 | 35960 ft | 433 kts | 296° |
| 2026-05-05 23:37 | 56.21781 | -122.52690 | 35955 ft | 434 kts | 296° |
| 2026-05-05 23:38 | 56.24523 | -122.62371 | 35956 ft | 435 kts | 296° |
| 2026-05-05 23:38 | 56.27268 | -122.72096 | 35951 ft | 436 kts | 296° |
| 2026-05-05 23:39 | 56.30006 | -122.81843 | 35952 ft | 436 kts | 296° |
| 2026-05-05 23:39 | 56.32718 | -122.91537 | 35946 ft | 436 kts | 296° |
| 2026-05-05 23:40 | 56.35447 | -123.01329 | 35947 ft | 436 kts | 295° |
| 2026-05-05 23:40 | 56.38161 | -123.11111 | 35942 ft | 435 kts | 295° |
| 2026-05-05 23:41 | 56.40858 | -123.20875 | 35962 ft | 434 kts | 295° |
| 2026-05-05 23:41 | 56.43550 | -123.30660 | 35945 ft | 434 kts | 295° |
| 2026-05-05 23:42 | 56.46221 | -123.40413 | 35943 ft | 435 kts | 294° |
| 2026-05-05 23:42 | 56.48905 | -123.50253 | 35945 ft | 436 kts | 294° |
| 2026-05-05 23:43 | 56.51578 | -123.60096 | 35941 ft | 436 kts | 294° |
| 2026-05-05 23:43 | 56.54244 | -123.69958 | 35936 ft | 435 kts | 294° |
| 2026-05-05 23:44 | 56.56899 | -123.79818 | 35929 ft | 435 kts | 294° |
| 2026-05-05 23:44 | 56.59527 | -123.89621 | 35925 ft | 435 kts | 293° |
| 2026-05-05 23:45 | 56.62171 | -123.99530 | 35925 ft | 436 kts | 293° |
| 2026-05-05 23:45 | 56.64812 | -124.09466 | 35931 ft | 435 kts | 293° |
| 2026-05-05 23:46 | 56.67431 | -124.19372 | 35911 ft | 437 kts | 293° |
| 2026-05-05 23:46 | 56.70061 | -124.29355 | 35903 ft | 437 kts | 293° |
| 2026-05-05 23:47 | 56.72682 | -124.39351 | 35907 ft | 437 kts | 292° |
| 2026-05-05 23:47 | 56.75280 | -124.49301 | 35905 ft | 437 kts | 292° |
| 2026-05-05 23:48 | 56.77884 | -124.59320 | 35904 ft | 438 kts | 292° |
| 2026-05-05 23:48 | 56.80494 | -124.69410 | 35898 ft | 439 kts | 292° |
| 2026-05-05 23:49 | 56.83077 | -124.79435 | 35893 ft | 438 kts | 292° |
| 2026-05-05 23:49 | 56.85661 | -124.89514 | 35888 ft | 437 kts | 292° |
| 2026-05-05 23:50 | 56.88230 | -124.99581 | 35890 ft | 437 kts | 291° |
| 2026-05-05 23:50 | 56.90786 | -125.09637 | 35865 ft | 438 kts | 291° |
| 2026-05-05 23:51 | 56.93345 | -125.19755 | 35868 ft | 438 kts | 291° |
| 2026-05-05 23:51 | 56.95906 | -125.29925 | 35876 ft | 440 kts | 291° |
| 2026-05-05 23:52 | 56.98469 | -125.40150 | 35894 ft | 440 kts | 291° |
| 2026-05-05 23:52 | 57.01016 | -125.50361 | 35881 ft | 440 kts | 291° |
| 2026-05-05 23:53 | 57.03539 | -125.60523 | 35897 ft | 440 kts | 291° |
| 2026-05-05 23:53 | 57.06073 | -125.70772 | 35906 ft | 440 kts | 290° |
| 2026-05-05 23:54 | 57.08602 | -125.81052 | 35906 ft | 441 kts | 290° |
| 2026-05-05 23:54 | 57.11115 | -125.91315 | 35908 ft | 440 kts | 290° |
| 2026-05-05 23:55 | 57.13622 | -126.01601 | 35905 ft | 440 kts | 290° |
| 2026-05-05 23:55 | 57.16106 | -126.11842 | 35905 ft | 441 kts | 290° |
| 2026-05-05 23:56 | 57.18604 | -126.22186 | 35911 ft | 441 kts | 290° |
| 2026-05-05 23:56 | 57.21092 | -126.32545 | 35907 ft | 441 kts | 289° |
| 2026-05-05 23:57 | 57.23572 | -126.42912 | 35906 ft | 442 kts | 289° |
| 2026-05-05 23:57 | 57.26029 | -126.53235 | 35911 ft | 442 kts | 289° |
| 2026-05-05 23:58 | 57.28495 | -126.63650 | 35904 ft | 442 kts | 289° |
| 2026-05-05 23:58 | 57.30952 | -126.74074 | 35898 ft | 442 kts | 288° |
| 2026-05-05 23:59 | 57.33401 | -126.84513 | 35889 ft | 442 kts | 288° |
| 2026-05-05 23:59 | 57.35824 | -126.94891 | 35893 ft | 441 kts | 288° |
| 2026-05-06 00:00 | 57.38255 | -127.05356 | 35888 ft | 442 kts | 288° |
| 2026-05-06 00:00 | 57.40677 | -127.15829 | 35894 ft | 441 kts | 288° |
| 2026-05-06 00:01 | 57.43090 | -127.26322 | 35876 ft | 441 kts | 288° |
| 2026-05-06 00:01 | 57.45489 | -127.36803 | 35875 ft | 441 kts | 287° |
| 2026-05-06 00:02 | 57.47867 | -127.47243 | 35881 ft | 442 kts | 287° |
| 2026-05-06 00:02 | 57.50255 | -127.57778 | 35878 ft | 441 kts | 287° |
| 2026-05-06 00:03 | 57.52629 | -127.68306 | 35877 ft | 441 kts | 287° |
| 2026-05-06 00:03 | 57.54996 | -127.78855 | 35881 ft | 441 kts | 287° |
| 2026-05-06 00:04 | 57.57343 | -127.89365 | 35875 ft | 442 kts | 286° |
| 2026-05-06 00:04 | 57.59697 | -127.99962 | 35879 ft | 442 kts | 286° |
| 2026-05-06 00:05 | 57.63212 | -128.15886 | 35874 ft | 442 kts | 286° |
| 2026-05-06 00:06 | 57.65547 | -128.26532 | 35874 ft | 443 kts | 285° |
| 2026-05-06 00:06 | 57.67860 | -128.37129 | 35875 ft | 443 kts | 285° |
| 2026-05-06 00:07 | 57.70181 | -128.47823 | 35880 ft | 444 kts | 285° |
| 2026-05-06 00:07 | 57.72493 | -128.58527 | 35877 ft | 444 kts | 285° |
| 2026-05-06 00:08 | 57.74800 | -128.69262 | 35877 ft | 444 kts | 285° |
| 2026-05-06 00:08 | 57.77085 | -128.79951 | 35880 ft | 445 kts | 285° |
| 2026-05-06 00:09 | 57.79378 | -128.90737 | 35879 ft | 445 kts | 285° |
| 2026-05-06 00:09 | 57.81658 | -129.01513 | 35878 ft | 445 kts | 284° |
| 2026-05-06 00:10 | 57.83928 | -129.12305 | 35879 ft | 445 kts | 284° |
| 2026-05-06 00:10 | 57.86201 | -129.23163 | 35880 ft | 446 kts | 284° |
| 2026-05-06 00:11 | 57.88447 | -129.33954 | 35877 ft | 446 kts | 284° |
| 2026-05-06 00:11 | 57.90702 | -129.44844 | 35884 ft | 447 kts | 284° |
| 2026-05-06 00:12 | 57.92571 | -129.53913 | 35863 ft | 448 kts | 284° |
| 2026-05-06 00:12 | 57.94818 | -129.64876 | 35876 ft | 448 kts | 284° |
| 2026-05-06 00:13 | 57.97418 | -129.77628 | 35881 ft | 448 kts | 283° |
| 2026-05-06 00:13 | 57.99283 | -129.86835 | 35875 ft | 450 kts | 283° |
| 2026-05-06 00:14 | 58.01496 | -129.97802 | 35880 ft | 450 kts | 283° |
| 2026-05-06 00:14 | 58.03714 | -130.08867 | 35882 ft | 451 kts | 283° |
| 2026-05-06 00:15 | 58.05922 | -130.19931 | 35884 ft | 450 kts | 283° |
| 2026-05-06 00:15 | 58.08123 | -130.31034 | 35878 ft | 451 kts | 283° |
| 2026-05-06 00:16 | 58.10317 | -130.42155 | 35874 ft | 452 kts | 283° |
| 2026-05-06 00:16 | 58.12503 | -130.53305 | 35873 ft | 452 kts | 283° |
| 2026-05-06 00:17 | 58.14684 | -130.64487 | 35874 ft | 452 kts | 283° |
| 2026-05-06 00:17 | 58.16836 | -130.75590 | 35875 ft | 452 kts | 283° |
| 2026-05-06 00:18 | 58.18999 | -130.86810 | 35878 ft | 453 kts | 283° |
| 2026-05-06 00:18 | 58.21160 | -130.98084 | 35884 ft | 454 kts | 283° |
| 2026-05-06 00:19 | 58.23297 | -131.09298 | 35884 ft | 455 kts | 283° |
| 2026-05-06 00:19 | 58.25441 | -131.20610 | 35878 ft | 455 kts | 282° |
| 2026-05-06 00:20 | 58.27577 | -131.31956 | 35895 ft | 455 kts | 283° |
| 2026-05-06 00:20 | 58.29697 | -131.43278 | 35899 ft | 454 kts | 283° |
| 2026-05-06 00:21 | 58.31794 | -131.54549 | 35903 ft | 455 kts | 283° |
| 2026-05-06 00:21 | 58.33904 | -131.65949 | 35913 ft | 456 kts | 283° |
| 2026-05-06 00:22 | 58.35988 | -131.77282 | 35916 ft | 456 kts | 282° |
| 2026-05-06 00:22 | 58.38076 | -131.88706 | 35919 ft | 457 kts | 282° |
| 2026-05-06 00:23 | 58.40156 | -132.00149 | 35935 ft | 456 kts | 282° |
| 2026-05-06 00:23 | 58.42224 | -132.11605 | 35951 ft | 456 kts | 282° |
| 2026-05-06 00:24 | 58.44280 | -132.23054 | 35960 ft | 456 kts | 282° |
| 2026-05-06 00:24 | 58.46312 | -132.34443 | 35975 ft | 456 kts | 282° |
| 2026-05-06 00:25 | 58.48350 | -132.45942 | 35986 ft | 457 kts | 282° |
| 2026-05-06 00:25 | 58.50375 | -132.57433 | 35994 ft | 456 kts | 282° |
| 2026-05-06 00:26 | 58.52399 | -132.68994 | 36005 ft | 458 kts | 282° |
| 2026-05-06 00:26 | 58.54416 | -132.80584 | 36015 ft | 458 kts | 282° |
| 2026-05-06 00:27 | 58.56412 | -132.92131 | 36012 ft | 459 kts | 282° |
| 2026-05-06 00:27 | 58.58408 | -133.03744 | 36025 ft | 458 kts | 282° |
| 2026-05-06 00:28 | 58.60393 | -133.15379 | 36033 ft | 458 kts | 282° |
| 2026-05-06 00:28 | 58.62367 | -133.27014 | 36029 ft | 458 kts | 282° |
| 2026-05-06 00:29 | 58.64330 | -133.38662 | 36035 ft | 459 kts | 282° |
| 2026-05-06 00:29 | 58.66274 | -133.50270 | 36028 ft | 460 kts | 282° |
| 2026-05-06 00:30 | 58.68219 | -133.61962 | 36036 ft | 459 kts | 282° |
| 2026-05-06 00:30 | 58.70155 | -133.73681 | 36038 ft | 459 kts | 281° |
| 2026-05-06 00:31 | 58.72080 | -133.85407 | 36050 ft | 459 kts | 281° |
| 2026-05-06 00:31 | 58.73984 | -133.97078 | 36049 ft | 459 kts | 281° |
| 2026-05-06 00:32 | 58.75888 | -134.08834 | 36058 ft | 459 kts | 281° |
| 2026-05-06 00:32 | 58.77784 | -134.20621 | 36051 ft | 460 kts | 281° |
| 2026-05-06 00:33 | 58.79667 | -134.32402 | 36051 ft | 459 kts | 281° |
| 2026-05-06 00:33 | 58.81536 | -134.44172 | 36053 ft | 458 kts | 281° |
| 2026-05-06 00:34 | 58.83385 | -134.55905 | 36047 ft | 459 kts | 281° |
| 2026-05-06 00:34 | 58.85235 | -134.67718 | 36047 ft | 459 kts | 281° |
| 2026-05-06 00:35 | 58.87075 | -134.79555 | 36026 ft | 460 kts | 280° |
| 2026-05-06 00:35 | 58.88905 | -134.91403 | 36018 ft | 460 kts | 280° |
| 2026-05-06 00:36 | 58.90723 | -135.03266 | 36005 ft | 459 kts | 280° |
| 2026-05-06 00:36 | 58.92506 | -135.15156 | 36008 ft | 460 kts | 280° |
| 2026-05-06 00:37 | 58.94287 | -135.27050 | 36012 ft | 460 kts | 280° |
| 2026-05-06 00:37 | 58.96044 | -135.38894 | 36000 ft | 460 kts | 279° |
| 2026-05-06 00:38 | 58.97802 | -135.50828 | 36001 ft | 460 kts | 279° |
| 2026-05-06 00:38 | 58.99550 | -135.62774 | 36001 ft | 460 kts | 279° |
| 2026-05-06 00:39 | 59.01277 | -135.74666 | 35992 ft | 460 kts | 279° |
| 2026-05-06 00:39 | 59.03002 | -135.86634 | 36002 ft | 460 kts | 279° |
| 2026-05-06 00:40 | 59.04716 | -135.98617 | 36006 ft | 460 kts | 279° |
| 2026-05-06 00:40 | 59.06418 | -136.10598 | 36010 ft | 460 kts | 279° |
| 2026-05-06 00:41 | 59.08101 | -136.22541 | 36026 ft | 460 kts | 279° |
| 2026-05-06 00:41 | 59.09784 | -136.34575 | 36025 ft | 461 kts | 279° |
| 2026-05-06 00:42 | 59.11457 | -136.46619 | 36032 ft | 460 kts | 279° |
| 2026-05-06 00:42 | 59.13115 | -136.58660 | 36017 ft | 460 kts | 279° |
| 2026-05-06 00:43 | 59.14752 | -136.70630 | 36033 ft | 460 kts | 279° |
| 2026-05-06 00:43 | 59.16392 | -136.82719 | 36036 ft | 461 kts | 279° |
| 2026-05-06 00:44 | 59.18020 | -136.94807 | 36035 ft | 460 kts | 279° |
| 2026-05-06 00:44 | 59.19627 | -137.06846 | 36034 ft | 461 kts | 279° |
| 2026-05-06 00:45 | 59.21234 | -137.18974 | 36035 ft | 461 kts | 279° |
| 2026-05-06 00:45 | 59.22831 | -137.31123 | 36028 ft | 461 kts | 279° |
| 2026-05-06 00:46 | 59.24416 | -137.43275 | 36038 ft | 462 kts | 278° |
| 2026-05-06 00:46 | 59.25984 | -137.55402 | 36040 ft | 462 kts | 278° |
| 2026-05-06 00:47 | 59.27551 | -137.67615 | 36042 ft | 463 kts | 278° |
| 2026-05-06 00:47 | 59.29107 | -137.79848 | 36056 ft | 464 kts | 278° |
| 2026-05-06 00:48 | 59.30653 | -137.92102 | 36060 ft | 464 kts | 278° |
| 2026-05-06 00:48 | 59.32190 | -138.04388 | 36062 ft | 464 kts | 278° |
| 2026-05-06 00:49 | 59.33715 | -138.16674 | 36040 ft | 464 kts | 278° |
| 2026-05-06 00:49 | 59.35218 | -138.28892 | 36048 ft | 464 kts | 278° |
| 2026-05-06 00:50 | 59.36716 | -138.41170 | 36051 ft | 463 kts | 278° |
| 2026-05-06 00:50 | 59.38199 | -138.53434 | 36060 ft | 463 kts | 278° |
| 2026-05-06 00:51 | 59.39676 | -138.65766 | 36052 ft | 464 kts | 278° |
| 2026-05-06 00:51 | 59.41142 | -138.78091 | 36053 ft | 464 kts | 278° |
| 2026-05-06 00:52 | 59.42597 | -138.90445 | 36047 ft | 464 kts | 278° |
| 2026-05-06 00:52 | 59.44040 | -139.02807 | 36043 ft | 464 kts | 278° |
| 2026-05-06 00:53 | 59.45467 | -139.15140 | 36037 ft | 465 kts | 278° |
| 2026-05-06 00:53 | 59.46888 | -139.27531 | 36032 ft | 464 kts | 277° |
| 2026-05-06 00:54 | 59.48296 | -139.39923 | 36030 ft | 464 kts | 277° |
| 2026-05-06 00:54 | 59.49691 | -139.52315 | 36030 ft | 463 kts | 277° |
| 2026-05-06 00:55 | 59.51086 | -139.64613 | 36027 ft | 465 kts | 281° |
| 2026-05-06 00:55 | 59.53120 | -139.76776 | 36030 ft | 468 kts | 283° |
| 2026-05-06 00:56 | 59.55181 | -139.88977 | 36031 ft | 468 kts | 283° |
| 2026-05-06 00:56 | 59.57224 | -140.01149 | 36029 ft | 467 kts | 283° |
| 2026-05-06 00:57 | 59.59257 | -140.13349 | 36024 ft | 468 kts | 283° |
| 2026-05-06 00:57 | 59.61266 | -140.25484 | 36016 ft | 468 kts | 283° |
| 2026-05-06 00:58 | 59.63281 | -140.37741 | 36015 ft | 469 kts | 283° |
| 2026-05-06 00:58 | 59.65288 | -140.50026 | 36014 ft | 469 kts | 283° |
| 2026-05-06 00:59 | 59.67279 | -140.62310 | 36008 ft | 468 kts | 283° |
| 2026-05-06 00:59 | 59.69254 | -140.74571 | 35996 ft | 467 kts | 282° |
| 2026-05-06 01:00 | 59.71202 | -140.86758 | 35989 ft | 468 kts | 282° |
| 2026-05-06 01:00 | 59.73159 | -140.99075 | 36003 ft | 467 kts | 282° |
| 2026-05-06 01:01 | 59.75099 | -141.11378 | 36002 ft | 467 kts | 282° |
| 2026-05-06 01:01 | 59.76702 | -141.21614 | 35996 ft | 468 kts | 282° |
| 2026-05-06 01:02 | 59.78626 | -141.33972 | 35995 ft | 469 kts | 282° |
| 2026-05-06 01:02 | 59.80542 | -141.46373 | 35997 ft | 469 kts | 282° |
| 2026-05-06 01:03 | 59.82442 | -141.58756 | 35995 ft | 468 kts | 282° |
| 2026-05-06 01:03 | 59.84318 | -141.71082 | 35989 ft | 468 kts | 282° |
| 2026-05-06 01:04 | 59.86192 | -141.83471 | 35986 ft | 467 kts | 282° |
| 2026-05-06 01:04 | 59.88052 | -141.95866 | 35980 ft | 467 kts | 282° |
| 2026-05-06 01:05 | 59.89903 | -142.08292 | 35979 ft | 468 kts | 282° |
| 2026-05-06 01:05 | 59.91746 | -142.20760 | 35974 ft | 469 kts | 282° |
| 2026-05-06 01:06 | 59.93578 | -142.33241 | 35954 ft | 468 kts | 282° |
| 2026-05-06 01:06 | 59.95383 | -142.45630 | 35959 ft | 468 kts | 282° |
| 2026-05-06 01:07 | 59.97192 | -142.58151 | 35957 ft | 469 kts | 282° |
| 2026-05-06 01:07 | 59.98991 | -142.70688 | 35959 ft | 469 kts | 282° |
| 2026-05-06 01:08 | 60.00767 | -142.83166 | 35954 ft | 469 kts | 281° |
| 2026-05-06 01:08 | 60.02543 | -142.95738 | 35952 ft | 469 kts | 281° |
| 2026-05-06 01:09 | 60.04307 | -143.08323 | 35949 ft | 470 kts | 281° |
| 2026-05-06 01:09 | 60.06059 | -143.20918 | 35948 ft | 469 kts | 281° |
| 2026-05-06 01:10 | 60.07797 | -143.33525 | 35949 ft | 469 kts | 281° |
| 2026-05-06 01:10 | 60.09515 | -143.46071 | 35934 ft | 469 kts | 281° |
| 2026-05-06 01:11 | 60.11229 | -143.58700 | 35936 ft | 470 kts | 281° |
| 2026-05-06 01:11 | 60.12926 | -143.71303 | 35934 ft | 470 kts | 281° |
| 2026-05-06 01:12 | 60.14621 | -143.83986 | 35932 ft | 470 kts | 281° |
| 2026-05-06 01:12 | 60.16304 | -143.96693 | 35927 ft | 470 kts | 281° |
| 2026-05-06 01:13 | 60.17964 | -144.09325 | 35921 ft | 471 kts | 281° |
| 2026-05-06 01:13 | 60.19625 | -144.22069 | 35918 ft | 472 kts | 281° |
| 2026-05-06 01:14 | 60.22102 | -144.41281 | 35912 ft | 473 kts | 281° |
| 2026-05-06 01:14 | 60.23740 | -144.54117 | 35913 ft | 473 kts | 281° |
| 2026-05-06 01:15 | 60.25363 | -144.66952 | 35907 ft | 473 kts | 280° |
| 2026-05-06 01:15 | 60.26977 | -144.79821 | 35905 ft | 473 kts | 280° |
| 2026-05-06 01:16 | 60.28566 | -144.92607 | 35905 ft | 473 kts | 280° |
| 2026-05-06 01:16 | 60.30157 | -145.05519 | 35907 ft | 474 kts | 280° |
| 2026-05-06 01:17 | 60.31735 | -145.18447 | 35916 ft | 475 kts | 280° |
| 2026-05-06 01:17 | 60.33304 | -145.31411 | 35918 ft | 475 kts | 280° |
| 2026-05-06 01:18 | 60.34850 | -145.44303 | 35919 ft | 474 kts | 280° |
| 2026-05-06 01:18 | 60.36391 | -145.57268 | 35921 ft | 474 kts | 280° |
| 2026-05-06 01:19 | 60.37919 | -145.70242 | 35908 ft | 475 kts | 280° |
| 2026-05-06 01:19 | 60.39438 | -145.83261 | 35909 ft | 475 kts | 280° |
| 2026-05-06 01:20 | 60.40942 | -145.96274 | 35905 ft | 475 kts | 279° |
| 2026-05-06 01:20 | 60.42435 | -146.09316 | 35898 ft | 475 kts | 279° |
| 2026-05-06 01:21 | 60.43914 | -146.22360 | 35888 ft | 475 kts | 279° |
| 2026-05-06 01:21 | 60.45383 | -146.35433 | 35886 ft | 475 kts | 279° |
| 2026-05-06 01:22 | 60.46836 | -146.48487 | 35882 ft | 475 kts | 279° |
| 2026-05-06 01:22 | 60.48423 | -146.61429 | 35898 ft | 478 kts | 288° |
| 2026-05-06 01:23 | 60.50941 | -146.73987 | 35882 ft | 481 kts | 289° |
| 2026-05-06 01:23 | 60.53481 | -146.86573 | 35876 ft | 480 kts | 289° |
| 2026-05-06 01:24 | 60.55990 | -146.99140 | 35509 ft | 477 kts | 289° |
| 2026-05-06 01:24 | 60.57244 | -147.05431 | 34723 ft | 481 kts | 289° |
| 2026-05-06 01:24 | 60.58479 | -147.11650 | 34105 ft | 479 kts | 289° |
| 2026-05-06 01:25 | 60.59723 | -147.17944 | 33405 ft | 478 kts | 289° |
| 2026-05-06 01:25 | 60.60959 | -147.24208 | 32774 ft | 474 kts | 288° |
| 2026-05-06 01:25 | 60.62182 | -147.30426 | 32122 ft | 471 kts | 288° |
| 2026-05-06 01:25 | 60.63393 | -147.36608 | 31464 ft | 468 kts | 288° |
| 2026-05-06 01:26 | 60.64593 | -147.42754 | 30806 ft | 465 kts | 288° |
| 2026-05-06 01:26 | 60.65782 | -147.48856 | 30149 ft | 462 kts | 288° |
| 2026-05-06 01:26 | 60.66963 | -147.54935 | 29452 ft | 458 kts | 288° |
| 2026-05-06 01:26 | 60.68109 | -147.60855 | 28792 ft | 451 kts | 288° |
| 2026-05-06 01:27 | 60.69250 | -147.66767 | 28173 ft | 445 kts | 288° |
| 2026-05-06 01:27 | 60.70376 | -147.72617 | 27544 ft | 439 kts | 288° |
| 2026-05-06 01:27 | 60.71482 | -147.78385 | 26914 ft | 433 kts | 288° |
| 2026-05-06 01:27 | 60.72570 | -147.84071 | 26298 ft | 427 kts | 288° |
| 2026-05-06 01:28 | 60.73642 | -147.89694 | 25676 ft | 422 kts | 288° |
| 2026-05-06 01:28 | 60.74703 | -147.95272 | 25076 ft | 417 kts | 288° |